sensor_id;sensor_type;location;lat;lon;timestamp;P1;durP1;ratioP1;P2;durP2;ratioP2
1957;SDS011;979;51.076;13.748;2023-07-29T00:00:28;17.40;;;16.70;;
1957;SDS011;979;51.076;13.748;2023-07-29T00:02:56;18.30;;;17.60;;
1957;SDS011;979;51.076;13.748;2023-07-29T00:05:25;16.80;;;16.20;;
1957;SDS011;979;51.076;13.748;2023-07-29T00:07:53;16.10;;;15.60;;
1957;SDS011;979;51.076;13.748;2023-07-29T00:10:23;16.47;;;15.97;;
1957;SDS011;979;51.076;13.748;2023-07-29T00:12:52;16.90;;;16.30;;
1957;SDS011;979;51.076;13.748;2023-07-29T00:15:23;16.33;;;15.83;;
1957;SDS011;979;51.076;13.748;2023-07-29T00:17:52;16.73;;;15.97;;
1957;SDS011;979;51.076;13.748;2023-07-29T00:20:21;17.13;;;16.63;;
1957;SDS011;979;51.076;13.748;2023-07-29T00:22:49;16.73;;;16.23;;
1957;SDS011;979;51.076;13.748;2023-07-29T00:25:23;16.90;;;16.40;;
1957;SDS011;979;51.076;13.748;2023-07-29T00:27:52;16.43;;;15.80;;
1957;SDS011;979;51.076;13.748;2023-07-29T00:30:22;17.37;;;16.57;;
1957;SDS011;979;51.076;13.748;2023-07-29T00:32:51;17.50;;;16.90;;
1957;SDS011;979;51.076;13.748;2023-07-29T00:35:20;16.37;;;15.83;;
1957;SDS011;979;51.076;13.748;2023-07-29T00:37:51;16.47;;;15.93;;
1957;SDS011;979;51.076;13.748;2023-07-29T00:40:20;16.43;;;15.93;;
1957;SDS011;979;51.076;13.748;2023-07-29T00:42:50;16.50;;;15.80;;
1957;SDS011;979;51.076;13.748;2023-07-29T00:45:19;16.13;;;15.63;;
1957;SDS011;979;51.076;13.748;2023-07-29T00:47:47;16.30;;;15.80;;
1957;SDS011;979;51.076;13.748;2023-07-29T00:50:18;16.37;;;15.87;;
1957;SDS011;979;51.076;13.748;2023-07-29T00:52:48;16.93;;;16.30;;
1957;SDS011;979;51.076;13.748;2023-07-29T00:55:17;16.47;;;15.93;;
1957;SDS011;979;51.076;13.748;2023-07-29T00:57:47;16.00;;;15.50;;
1957;SDS011;979;51.076;13.748;2023-07-29T01:00:20;16.17;;;15.67;;
1957;SDS011;979;51.076;13.748;2023-07-29T01:02:52;16.50;;;15.90;;
1957;SDS011;979;51.076;13.748;2023-07-29T01:05:21;16.23;;;15.63;;
1957;SDS011;979;51.076;13.748;2023-07-29T01:07:55;16.97;;;16.37;;
1957;SDS011;979;51.076;13.748;2023-07-29T01:10:30;17.10;;;16.20;;
1957;SDS011;979;51.076;13.748;2023-07-29T01:13:13;16.10;;;15.60;;
1957;SDS011;979;51.076;13.748;2023-07-29T01:15:48;16.80;;;16.20;;
1957;SDS011;979;51.076;13.748;2023-07-29T01:18:22;16.97;;;16.37;;
1957;SDS011;979;51.076;13.748;2023-07-29T01:20:54;17.13;;;16.53;;
1957;SDS011;979;51.076;13.748;2023-07-29T01:23:31;17.57;;;16.77;;
1957;SDS011;979;51.076;13.748;2023-07-29T01:26:02;17.60;;;16.80;;
1957;SDS011;979;51.076;13.748;2023-07-29T01:28:30;16.57;;;15.97;;
1957;SDS011;979;51.076;13.748;2023-07-29T01:31:03;16.93;;;16.37;;
1957;SDS011;979;51.076;13.748;2023-07-29T01:33:39;16.93;;;16.30;;
1957;SDS011;979;51.076;13.748;2023-07-29T01:36:15;17.17;;;16.47;;
1957;SDS011;979;51.076;13.748;2023-07-29T01:38:51;16.53;;;15.97;;
1957;SDS011;979;51.076;13.748;2023-07-29T01:41:20;17.33;;;16.60;;
1957;SDS011;979;51.076;13.748;2023-07-29T01:43:51;16.97;;;16.37;;
1957;SDS011;979;51.076;13.748;2023-07-29T01:46:20;17.90;;;17.10;;
1957;SDS011;979;51.076;13.748;2023-07-29T01:48:48;16.40;;;15.90;;
1957;SDS011;979;51.076;13.748;2023-07-29T01:51:19;17.03;;;16.37;;
1957;SDS011;979;51.076;13.748;2023-07-29T01:53:48;17.03;;;16.33;;
1957;SDS011;979;51.076;13.748;2023-07-29T01:56:18;16.13;;;15.53;;
1957;SDS011;979;51.076;13.748;2023-07-29T01:58:52;16.57;;;15.97;;
1957;SDS011;979;51.076;13.748;2023-07-29T02:01:21;17.30;;;16.70;;
1957;SDS011;979;51.076;13.748;2023-07-29T02:03:51;16.73;;;16.13;;
1957;SDS011;979;51.076;13.748;2023-07-29T02:06:24;16.57;;;15.97;;
1957;SDS011;979;51.076;13.748;2023-07-29T02:08:54;16.20;;;15.60;;
1957;SDS011;979;51.076;13.748;2023-07-29T02:11:24;16.33;;;15.83;;
1957;SDS011;979;51.076;13.748;2023-07-29T02:13:54;16.33;;;15.83;;
1957;SDS011;979;51.076;13.748;2023-07-29T02:16:23;16.63;;;16.03;;
1957;SDS011;979;51.076;13.748;2023-07-29T02:18:54;16.63;;;16.10;;
1957;SDS011;979;51.076;13.748;2023-07-29T02:21:24;16.27;;;15.70;;
1957;SDS011;979;51.076;13.748;2023-07-29T02:23:52;15.90;;;15.37;;
1957;SDS011;979;51.076;13.748;2023-07-29T02:26:21;16.03;;;15.53;;
1957;SDS011;979;51.076;13.748;2023-07-29T02:28:51;16.67;;;15.90;;
1957;SDS011;979;51.076;13.748;2023-07-29T02:31:21;16.03;;;15.53;;
1957;SDS011;979;51.076;13.748;2023-07-29T02:33:50;15.90;;;15.40;;
1957;SDS011;979;51.076;13.748;2023-07-29T02:36:19;15.97;;;15.47;;
1957;SDS011;979;51.076;13.748;2023-07-29T02:38:48;15.80;;;15.20;;
1957;SDS011;979;51.076;13.748;2023-07-29T02:41:18;15.83;;;15.33;;
1957;SDS011;979;51.076;13.748;2023-07-29T02:43:50;16.90;;;16.27;;
1957;SDS011;979;51.076;13.748;2023-07-29T02:46:19;16.40;;;15.90;;
1957;SDS011;979;51.076;13.748;2023-07-29T02:48:47;16.33;;;15.73;;
1957;SDS011;979;51.076;13.748;2023-07-29T02:51:15;15.90;;;15.40;;
1957;SDS011;979;51.076;13.748;2023-07-29T02:53:44;15.07;;;14.67;;
1957;SDS011;979;51.076;13.748;2023-07-29T02:56:12;16.10;;;15.50;;
1957;SDS011;979;51.076;13.748;2023-07-29T02:58:40;16.47;;;15.77;;
1957;SDS011;979;51.076;13.748;2023-07-29T03:01:10;15.40;;;14.80;;
1957;SDS011;979;51.076;13.748;2023-07-29T03:03:39;16.27;;;15.47;;
1957;SDS011;979;51.076;13.748;2023-07-29T03:06:08;16.17;;;15.57;;
1957;SDS011;979;51.076;13.748;2023-07-29T03:08:37;17.13;;;16.20;;
1957;SDS011;979;51.076;13.748;2023-07-29T03:11:08;15.47;;;14.97;;
1957;SDS011;979;51.076;13.748;2023-07-29T03:13:37;16.13;;;15.57;;
1957;SDS011;979;51.076;13.748;2023-07-29T03:16:07;15.20;;;14.70;;
1957;SDS011;979;51.076;13.748;2023-07-29T03:18:40;15.60;;;15.17;;
1957;SDS011;979;51.076;13.748;2023-07-29T03:21:19;16.30;;;15.60;;
1957;SDS011;979;51.076;13.748;2023-07-29T03:23:50;15.27;;;14.77;;
1957;SDS011;979;51.076;13.748;2023-07-29T03:26:22;15.40;;;14.90;;
1957;SDS011;979;51.076;13.748;2023-07-29T03:28:53;15.37;;;14.77;;
1957;SDS011;979;51.076;13.748;2023-07-29T03:31:24;15.73;;;15.07;;
1957;SDS011;979;51.076;13.748;2023-07-29T03:33:57;15.50;;;15.00;;
1957;SDS011;979;51.076;13.748;2023-07-29T03:36:31;15.20;;;14.70;;
1957;SDS011;979;51.076;13.748;2023-07-29T03:39:07;15.90;;;15.30;;
1957;SDS011;979;51.076;13.748;2023-07-29T03:41:36;15.57;;;15.07;;
1957;SDS011;979;51.076;13.748;2023-07-29T03:44:07;15.70;;;15.20;;
1957;SDS011;979;51.076;13.748;2023-07-29T03:46:40;15.33;;;14.93;;
1957;SDS011;979;51.076;13.748;2023-07-29T03:49:16;15.40;;;14.90;;
1957;SDS011;979;51.076;13.748;2023-07-29T03:51:51;15.90;;;15.30;;
1957;SDS011;979;51.076;13.748;2023-07-29T03:54:21;14.77;;;14.37;;
1957;SDS011;979;51.076;13.748;2023-07-29T03:56:57;15.27;;;14.73;;
1957;SDS011;979;51.076;13.748;2023-07-29T03:59:28;15.03;;;14.53;;
1957;SDS011;979;51.076;13.748;2023-07-29T04:01:57;14.83;;;14.33;;
1957;SDS011;979;51.076;13.748;2023-07-29T04:04:31;14.63;;;14.23;;
1957;SDS011;979;51.076;13.748;2023-07-29T04:06:59;15.40;;;14.50;;
1957;SDS011;979;51.076;13.748;2023-07-29T04:09:28;14.70;;;14.30;;
1957;SDS011;979;51.076;13.748;2023-07-29T04:11:57;15.33;;;14.73;;
1957;SDS011;979;51.076;13.748;2023-07-29T04:14:27;15.23;;;14.83;;
1957;SDS011;979;51.076;13.748;2023-07-29T04:16:56;15.43;;;15.03;;
1957;SDS011;979;51.076;13.748;2023-07-29T04:22:50;15.20;;;14.80;;
1957;SDS011;979;51.076;13.748;2023-07-29T04:25:18;15.10;;;14.70;;
1957;SDS011;979;51.076;13.748;2023-07-29T04:27:47;15.60;;;15.10;;
1957;SDS011;979;51.076;13.748;2023-07-29T04:30:15;15.90;;;15.50;;
1957;SDS011;979;51.076;13.748;2023-07-29T04:32:43;15.93;;;15.37;;
1957;SDS011;979;51.076;13.748;2023-07-29T04:35:18;15.63;;;15.13;;
1957;SDS011;979;51.076;13.748;2023-07-29T04:37:46;14.87;;;14.37;;
1957;SDS011;979;51.076;13.748;2023-07-29T04:40:16;14.90;;;14.50;;
1957;SDS011;979;51.076;13.748;2023-07-29T04:42:46;14.53;;;14.13;;
1957;SDS011;979;51.076;13.748;2023-07-29T04:45:14;14.90;;;14.50;;
1957;SDS011;979;51.076;13.748;2023-07-29T04:47:43;14.70;;;14.30;;
1957;SDS011;979;51.076;13.748;2023-07-29T04:50:11;14.60;;;14.20;;
1957;SDS011;979;51.076;13.748;2023-07-29T04:52:39;15.10;;;14.70;;
1957;SDS011;979;51.076;13.748;2023-07-29T04:55:08;14.87;;;14.47;;
1957;SDS011;979;51.076;13.748;2023-07-29T04:57:37;15.00;;;14.50;;
1957;SDS011;979;51.076;13.748;2023-07-29T05:00:06;14.43;;;14.03;;
1957;SDS011;979;51.076;13.748;2023-07-29T05:02:36;14.83;;;14.33;;
1957;SDS011;979;51.076;13.748;2023-07-29T05:05:04;15.20;;;14.70;;
1957;SDS011;979;51.076;13.748;2023-07-29T05:07:35;15.17;;;14.67;;
1957;SDS011;979;51.076;13.748;2023-07-29T05:10:03;15.27;;;14.70;;
1957;SDS011;979;51.076;13.748;2023-07-29T05:12:33;14.90;;;14.50;;
1957;SDS011;979;51.076;13.748;2023-07-29T05:15:02;15.00;;;14.60;;
1957;SDS011;979;51.076;13.748;2023-07-29T05:17:33;15.53;;;15.03;;
1957;SDS011;979;51.076;13.748;2023-07-29T05:20:01;14.90;;;14.50;;
1957;SDS011;979;51.076;13.748;2023-07-29T05:22:30;14.20;;;13.80;;
1957;SDS011;979;51.076;13.748;2023-07-29T05:24:58;15.93;;;15.27;;
1957;SDS011;979;51.076;13.748;2023-07-29T05:27:28;14.73;;;14.33;;
1957;SDS011;979;51.076;13.748;2023-07-29T05:29:58;15.07;;;14.67;;
1957;SDS011;979;51.076;13.748;2023-07-29T05:32:30;15.80;;;15.30;;
1957;SDS011;979;51.076;13.748;2023-07-29T05:34:58;15.33;;;14.93;;
1957;SDS011;979;51.076;13.748;2023-07-29T05:37:26;15.50;;;15.00;;
1957;SDS011;979;51.076;13.748;2023-07-29T05:39:57;15.60;;;15.03;;
1957;SDS011;979;51.076;13.748;2023-07-29T05:42:26;14.80;;;14.40;;
1957;SDS011;979;51.076;13.748;2023-07-29T05:44:54;15.40;;;14.80;;
1957;SDS011;979;51.076;13.748;2023-07-29T05:47:23;15.23;;;14.80;;
1957;SDS011;979;51.076;13.748;2023-07-29T05:49:53;14.90;;;14.50;;
1957;SDS011;979;51.076;13.748;2023-07-29T05:52:21;15.70;;;14.93;;
1957;SDS011;979;51.076;13.748;2023-07-29T05:54:50;14.77;;;14.37;;
1957;SDS011;979;51.076;13.748;2023-07-29T05:57:20;15.33;;;14.93;;
1957;SDS011;979;51.076;13.748;2023-07-29T05:59:48;15.40;;;14.90;;
1957;SDS011;979;51.076;13.748;2023-07-29T06:02:16;15.10;;;14.60;;
1957;SDS011;979;51.076;13.748;2023-07-29T06:04:45;15.00;;;14.60;;
1957;SDS011;979;51.076;13.748;2023-07-29T06:07:14;14.90;;;14.43;;
1957;SDS011;979;51.076;13.748;2023-07-29T06:09:45;14.80;;;14.40;;
1957;SDS011;979;51.076;13.748;2023-07-29T06:12:14;14.97;;;14.57;;
1957;SDS011;979;51.076;13.748;2023-07-29T06:14:42;15.30;;;14.90;;
1957;SDS011;979;51.076;13.748;2023-07-29T06:17:10;16.10;;;15.60;;
1957;SDS011;979;51.076;13.748;2023-07-29T06:19:38;15.50;;;15.10;;
1957;SDS011;979;51.076;13.748;2023-07-29T06:22:07;16.10;;;15.60;;
1957;SDS011;979;51.076;13.748;2023-07-29T06:24:38;15.17;;;14.77;;
1957;SDS011;979;51.076;13.748;2023-07-29T06:27:06;15.10;;;14.70;;
1957;SDS011;979;51.076;13.748;2023-07-29T06:29:34;15.00;;;14.60;;
1957;SDS011;979;51.076;13.748;2023-07-29T06:32:03;15.57;;;15.00;;
1957;SDS011;979;51.076;13.748;2023-07-29T06:34:32;15.20;;;14.70;;
1957;SDS011;979;51.076;13.748;2023-07-29T06:37:00;15.17;;;14.67;;
1957;SDS011;979;51.076;13.748;2023-07-29T06:39:28;15.13;;;14.70;;
1957;SDS011;979;51.076;13.748;2023-07-29T06:41:58;15.93;;;15.30;;
1957;SDS011;979;51.076;13.748;2023-07-29T06:44:26;15.27;;;14.87;;
1957;SDS011;979;51.076;13.748;2023-07-29T06:46:54;14.80;;;14.40;;
1957;SDS011;979;51.076;13.748;2023-07-29T06:49:22;15.50;;;15.10;;
1957;SDS011;979;51.076;13.748;2023-07-29T06:51:50;15.80;;;15.30;;
1957;SDS011;979;51.076;13.748;2023-07-29T06:54:19;15.47;;;14.90;;
1957;SDS011;979;51.076;13.748;2023-07-29T06:56:52;14.90;;;14.27;;
1957;SDS011;979;51.076;13.748;2023-07-29T06:59:21;14.90;;;14.50;;
1957;SDS011;979;51.076;13.748;2023-07-29T07:01:50;15.33;;;14.90;;
1957;SDS011;979;51.076;13.748;2023-07-29T07:04:19;14.70;;;14.30;;
1957;SDS011;979;51.076;13.748;2023-07-29T07:06:49;14.33;;;13.93;;
1957;SDS011;979;51.076;13.748;2023-07-29T07:09:17;15.47;;;14.97;;
1957;SDS011;979;51.076;13.748;2023-07-29T07:11:46;14.83;;;14.33;;
1957;SDS011;979;51.076;13.748;2023-07-29T07:14:17;15.27;;;14.77;;
1957;SDS011;979;51.076;13.748;2023-07-29T07:16:47;14.93;;;14.53;;
1957;SDS011;979;51.076;13.748;2023-07-29T07:19:15;14.70;;;14.30;;
1957;SDS011;979;51.076;13.748;2023-07-29T07:21:43;15.30;;;14.90;;
1957;SDS011;979;51.076;13.748;2023-07-29T07:24:11;15.10;;;14.70;;
1957;SDS011;979;51.076;13.748;2023-07-29T07:26:41;14.60;;;14.20;;
1957;SDS011;979;51.076;13.748;2023-07-29T07:29:12;15.00;;;14.60;;
1957;SDS011;979;51.076;13.748;2023-07-29T07:31:40;14.57;;;14.17;;
1957;SDS011;979;51.076;13.748;2023-07-29T07:34:10;14.30;;;13.90;;
1957;SDS011;979;51.076;13.748;2023-07-29T07:36:38;16.13;;;15.67;;
1957;SDS011;979;51.076;13.748;2023-07-29T07:39:12;18.70;;;17.90;;
1957;SDS011;979;51.076;13.748;2023-07-29T07:41:41;14.77;;;14.37;;
1957;SDS011;979;51.076;13.748;2023-07-29T07:44:12;14.70;;;14.30;;
1957;SDS011;979;51.076;13.748;2023-07-29T07:46:44;15.40;;;14.90;;
1957;SDS011;979;51.076;13.748;2023-07-29T07:49:13;14.73;;;14.33;;
1957;SDS011;979;51.076;13.748;2023-07-29T07:51:43;14.50;;;14.10;;
1957;SDS011;979;51.076;13.748;2023-07-29T07:54:11;15.33;;;14.90;;
1957;SDS011;979;51.076;13.748;2023-07-29T07:56:39;14.80;;;14.40;;
1957;SDS011;979;51.076;13.748;2023-07-29T07:59:10;14.90;;;14.40;;
1957;SDS011;979;51.076;13.748;2023-07-29T08:01:41;15.20;;;14.80;;
1957;SDS011;979;51.076;13.748;2023-07-29T08:04:09;15.10;;;14.70;;
1957;SDS011;979;51.076;13.748;2023-07-29T08:06:41;14.70;;;14.30;;
1957;SDS011;979;51.076;13.748;2023-07-29T08:09:09;14.80;;;14.40;;
1957;SDS011;979;51.076;13.748;2023-07-29T08:11:37;14.97;;;14.57;;
1957;SDS011;979;51.076;13.748;2023-07-29T08:14:05;15.00;;;14.60;;
1957;SDS011;979;51.076;13.748;2023-07-29T08:16:34;16.07;;;15.60;;
1957;SDS011;979;51.076;13.748;2023-07-29T08:19:02;15.00;;;14.60;;
1957;SDS011;979;51.076;13.748;2023-07-29T08:21:30;15.10;;;14.63;;
1957;SDS011;979;51.076;13.748;2023-07-29T08:24:00;15.00;;;14.60;;
1957;SDS011;979;51.076;13.748;2023-07-29T08:26:28;15.23;;;14.73;;
1957;SDS011;979;51.076;13.748;2023-07-29T08:28:57;14.40;;;14.00;;
1957;SDS011;979;51.076;13.748;2023-07-29T08:31:25;14.67;;;14.20;;
1957;SDS011;979;51.076;13.748;2023-07-29T08:33:53;14.77;;;14.37;;
1957;SDS011;979;51.076;13.748;2023-07-29T08:36:22;14.67;;;14.27;;
1957;SDS011;979;51.076;13.748;2023-07-29T08:38:50;14.77;;;14.37;;
1957;SDS011;979;51.076;13.748;2023-07-29T08:41:21;14.80;;;14.40;;
1957;SDS011;979;51.076;13.748;2023-07-29T08:43:56;16.10;;;15.57;;
1957;SDS011;979;51.076;13.748;2023-07-29T08:46:31;14.60;;;14.20;;
1957;SDS011;979;51.076;13.748;2023-07-29T08:49:01;14.93;;;14.53;;
1957;SDS011;979;51.076;13.748;2023-07-29T08:51:29;14.70;;;14.30;;
1957;SDS011;979;51.076;13.748;2023-07-29T08:53:59;15.40;;;15.00;;
1957;SDS011;979;51.076;13.748;2023-07-29T08:56:30;15.47;;;15.07;;
1957;SDS011;979;51.076;13.748;2023-07-29T08:58:58;14.80;;;14.40;;
1957;SDS011;979;51.076;13.748;2023-07-29T09:01:32;15.20;;;14.80;;
1957;SDS011;979;51.076;13.748;2023-07-29T09:04:03;15.13;;;14.73;;
1957;SDS011;979;51.076;13.748;2023-07-29T09:06:32;15.00;;;14.70;;
1957;SDS011;979;51.076;13.748;2023-07-29T09:09:03;15.20;;;14.80;;
1957;SDS011;979;51.076;13.748;2023-07-29T09:11:33;14.60;;;14.30;;
1957;SDS011;979;51.076;13.748;2023-07-29T09:14:01;15.10;;;14.70;;
1957;SDS011;979;51.076;13.748;2023-07-29T09:16:30;14.27;;;13.97;;
1957;SDS011;979;51.076;13.748;2023-07-29T09:19:00;14.50;;;14.10;;
1957;SDS011;979;51.076;13.748;2023-07-29T09:21:29;15.30;;;14.90;;
1957;SDS011;979;51.076;13.748;2023-07-29T09:23:57;19.67;;;18.87;;
1957;SDS011;979;51.076;13.748;2023-07-29T09:26:31;15.17;;;14.77;;
1957;SDS011;979;51.076;13.748;2023-07-29T09:29:01;14.83;;;14.43;;
1957;SDS011;979;51.076;13.748;2023-07-29T09:31:30;15.00;;;14.60;;
1957;SDS011;979;51.076;13.748;2023-07-29T09:33:58;15.87;;;15.37;;
1957;SDS011;979;51.076;13.748;2023-07-29T09:36:29;15.40;;;14.90;;
1957;SDS011;979;51.076;13.748;2023-07-29T09:39:01;15.13;;;14.73;;
1957;SDS011;979;51.076;13.748;2023-07-29T09:41:29;15.07;;;14.67;;
1957;SDS011;979;51.076;13.748;2023-07-29T09:44:01;15.27;;;14.77;;
1957;SDS011;979;51.076;13.748;2023-07-29T09:46:33;15.80;;;15.30;;
1957;SDS011;979;51.076;13.748;2023-07-29T09:49:05;15.30;;;14.90;;
1957;SDS011;979;51.076;13.748;2023-07-29T09:51:37;15.20;;;14.80;;
1957;SDS011;979;51.076;13.748;2023-07-29T09:54:08;15.57;;;15.07;;
1957;SDS011;979;51.076;13.748;2023-07-29T09:56:39;15.70;;;15.10;;
1957;SDS011;979;51.076;13.748;2023-07-29T09:59:11;15.80;;;15.40;;
1957;SDS011;979;51.076;13.748;2023-07-29T10:01:41;16.30;;;15.80;;
1957;SDS011;979;51.076;13.748;2023-07-29T10:04:12;16.27;;;15.77;;
1957;SDS011;979;51.076;13.748;2023-07-29T10:06:42;16.20;;;15.43;;
1957;SDS011;979;51.076;13.748;2023-07-29T10:09:11;16.10;;;15.70;;
1957;SDS011;979;51.076;13.748;2023-07-29T10:11:39;16.43;;;15.73;;
1957;SDS011;979;51.076;13.748;2023-07-29T10:14:09;15.60;;;15.20;;
1957;SDS011;979;51.076;13.748;2023-07-29T10:16:39;15.80;;;15.30;;
1957;SDS011;979;51.076;13.748;2023-07-29T10:19:08;14.07;;;13.70;;
1957;SDS011;979;51.076;13.748;2023-07-29T10:21:39;16.60;;;16.10;;
1957;SDS011;979;51.076;13.748;2023-07-29T10:24:11;16.27;;;15.77;;
1957;SDS011;979;51.076;13.748;2023-07-29T10:26:47;15.97;;;15.47;;
1957;SDS011;979;51.076;13.748;2023-07-29T10:29:19;16.20;;;15.70;;
1957;SDS011;979;51.076;13.748;2023-07-29T10:31:51;16.07;;;15.60;;
1957;SDS011;979;51.076;13.748;2023-07-29T10:34:20;15.97;;;15.57;;
1957;SDS011;979;51.076;13.748;2023-07-29T10:36:49;15.90;;;15.40;;
1957;SDS011;979;51.076;13.748;2023-07-29T10:39:18;16.07;;;15.57;;
1957;SDS011;979;51.076;13.748;2023-07-29T10:41:56;16.10;;;15.30;;
1957;SDS011;979;51.076;13.748;2023-07-29T10:47:22;15.20;;;14.77;;
1957;SDS011;979;51.076;13.748;2023-07-29T10:49:54;14.77;;;14.37;;
1957;SDS011;979;51.076;13.748;2023-07-29T10:52:30;14.50;;;14.17;;
1957;SDS011;979;51.076;13.748;2023-07-29T10:55:22;14.80;;;14.40;;
1957;SDS011;979;51.076;13.748;2023-07-29T10:58:05;14.73;;;14.30;;
1957;SDS011;979;51.076;13.748;2023-07-29T11:00:40;14.70;;;14.30;;
1957;SDS011;979;51.076;13.748;2023-07-29T11:03:09;14.63;;;14.23;;
1957;SDS011;979;51.076;13.748;2023-07-29T11:05:49;16.60;;;16.00;;
1957;SDS011;979;51.076;13.748;2023-07-29T11:08:24;15.70;;;15.20;;
1957;SDS011;979;51.076;13.748;2023-07-29T11:10:58;15.30;;;14.87;;
1957;SDS011;979;51.076;13.748;2023-07-29T11:13:31;14.70;;;14.20;;
1957;SDS011;979;51.076;13.748;2023-07-29T11:16:02;14.40;;;13.90;;
1957;SDS011;979;51.076;13.748;2023-07-29T11:18:31;14.60;;;14.20;;
1957;SDS011;979;51.076;13.748;2023-07-29T11:21:03;15.70;;;15.00;;
1957;SDS011;979;51.076;13.748;2023-07-29T11:23:32;14.13;;;13.73;;
1957;SDS011;979;51.076;13.748;2023-07-29T11:26:01;14.60;;;14.20;;
1957;SDS011;979;51.076;13.748;2023-07-29T11:28:30;15.30;;;14.80;;
1957;SDS011;979;51.076;13.748;2023-07-29T11:31:06;26.13;;;24.37;;
1957;SDS011;979;51.076;13.748;2023-07-29T11:33:38;48.53;;;45.27;;
1957;SDS011;979;51.076;13.748;2023-07-29T11:36:16;39.80;;;38.23;;
1957;SDS011;979;51.076;13.748;2023-07-29T11:38:46;2.70;;;2.00;;
1957;SDS011;979;51.076;13.748;2023-07-29T11:41:18;4.03;;;2.20;;
1957;SDS011;979;51.076;13.748;2023-07-29T11:43:47;2.37;;;2.10;;
1957;SDS011;979;51.076;13.748;2023-07-29T11:46:21;1.90;;;1.80;;
1957;SDS011;979;51.076;13.748;2023-07-29T11:48:50;2.00;;;1.70;;
1957;SDS011;979;51.076;13.748;2023-07-29T11:51:21;2.43;;;2.23;;
1957;SDS011;979;51.076;13.748;2023-07-29T11:53:49;2.70;;;2.50;;
1957;SDS011;979;51.076;13.748;2023-07-29T11:56:18;2.50;;;2.40;;
1957;SDS011;979;51.076;13.748;2023-07-29T11:58:49;2.90;;;2.30;;
1957;SDS011;979;51.076;13.748;2023-07-29T12:01:18;2.30;;;2.10;;
1957;SDS011;979;51.076;13.748;2023-07-29T12:03:48;4.43;;;2.20;;
1957;SDS011;979;51.076;13.748;2023-07-29T12:06:17;2.93;;;2.43;;
1957;SDS011;979;51.076;13.748;2023-07-29T12:08:48;3.80;;;2.30;;
1957;SDS011;979;51.076;13.748;2023-07-29T12:11:19;2.20;;;2.10;;
1957;SDS011;979;51.076;13.748;2023-07-29T12:13:50;3.60;;;2.57;;
1957;SDS011;979;51.076;13.748;2023-07-29T12:16:21;4.93;;;2.47;;
1957;SDS011;979;51.076;13.748;2023-07-29T12:18:51;1.90;;;1.80;;
1957;SDS011;979;51.076;13.748;2023-07-29T12:21:20;1.90;;;1.80;;
1957;SDS011;979;51.076;13.748;2023-07-29T12:23:49;2.03;;;1.50;;
1957;SDS011;979;51.076;13.748;2023-07-29T12:26:18;1.50;;;1.40;;
1957;SDS011;979;51.076;13.748;2023-07-29T12:28:48;1.77;;;1.67;;
1957;SDS011;979;51.076;13.748;2023-07-29T12:31:17;1.73;;;1.63;;
1957;SDS011;979;51.076;13.748;2023-07-29T12:33:45;1.60;;;1.50;;
1957;SDS011;979;51.076;13.748;2023-07-29T12:36:15;1.60;;;1.30;;
1957;SDS011;979;51.076;13.748;2023-07-29T12:38:44;1.63;;;1.53;;
1957;SDS011;979;51.076;13.748;2023-07-29T12:41:13;1.33;;;1.23;;
1957;SDS011;979;51.076;13.748;2023-07-29T12:43:41;1.40;;;1.30;;
1957;SDS011;979;51.076;13.748;2023-07-29T12:46:11;1.23;;;1.13;;
1957;SDS011;979;51.076;13.748;2023-07-29T12:48:40;1.30;;;1.20;;
1957;SDS011;979;51.076;13.748;2023-07-29T12:51:08;1.33;;;1.23;;
1957;SDS011;979;51.076;13.748;2023-07-29T12:53:40;1.80;;;1.70;;
1957;SDS011;979;51.076;13.748;2023-07-29T12:56:11;1.17;;;1.07;;
1957;SDS011;979;51.076;13.748;2023-07-29T12:58:42;1.40;;;1.30;;
1957;SDS011;979;51.076;13.748;2023-07-29T13:01:13;1.60;;;1.50;;
1957;SDS011;979;51.076;13.748;2023-07-29T13:03:44;1.30;;;1.20;;
1957;SDS011;979;51.076;13.748;2023-07-29T13:06:15;1.50;;;1.40;;
1957;SDS011;979;51.076;13.748;2023-07-29T13:08:45;1.63;;;1.53;;
1957;SDS011;979;51.076;13.748;2023-07-29T13:11:15;1.40;;;1.30;;
1957;SDS011;979;51.076;13.748;2023-07-29T13:13:44;4.60;;;1.60;;
1957;SDS011;979;51.076;13.748;2023-07-29T13:16:15;1.83;;;1.40;;
1957;SDS011;979;51.076;13.748;2023-07-29T13:18:46;2.20;;;1.93;;
1957;SDS011;979;51.076;13.748;2023-07-29T13:21:14;1.80;;;1.70;;
1957;SDS011;979;51.076;13.748;2023-07-29T13:23:42;1.60;;;1.50;;
1957;SDS011;979;51.076;13.748;2023-07-29T13:26:12;1.67;;;1.50;;
1957;SDS011;979;51.076;13.748;2023-07-29T13:28:40;1.83;;;1.40;;
1957;SDS011;979;51.076;13.748;2023-07-29T13:31:08;2.30;;;1.40;;
1957;SDS011;979;51.076;13.748;2023-07-29T13:33:38;1.40;;;1.30;;
1957;SDS011;979;51.076;13.748;2023-07-29T13:36:06;1.73;;;1.50;;
1957;SDS011;979;51.076;13.748;2023-07-29T13:38:37;1.83;;;1.57;;
1957;SDS011;979;51.076;13.748;2023-07-29T13:41:06;1.60;;;1.50;;
1957;SDS011;979;51.076;13.748;2023-07-29T13:43:35;4.20;;;2.27;;
1957;SDS011;979;51.076;13.748;2023-07-29T13:46:03;1.37;;;1.10;;
1957;SDS011;979;51.076;13.748;2023-07-29T13:48:31;1.50;;;1.40;;
1957;SDS011;979;51.076;13.748;2023-07-29T13:51:02;2.00;;;1.90;;
1957;SDS011;979;51.076;13.748;2023-07-29T13:53:30;1.50;;;1.40;;
1957;SDS011;979;51.076;13.748;2023-07-29T13:55:58;1.60;;;1.50;;
1957;SDS011;979;51.076;13.748;2023-07-29T13:58:28;1.73;;;1.60;;
1957;SDS011;979;51.076;13.748;2023-07-29T14:00:58;1.50;;;1.40;;
1957;SDS011;979;51.076;13.748;2023-07-29T14:03:26;1.53;;;1.43;;
1957;SDS011;979;51.076;13.748;2023-07-29T14:05:54;1.70;;;1.60;;
1957;SDS011;979;51.076;13.748;2023-07-29T14:08:25;1.60;;;1.50;;
1957;SDS011;979;51.076;13.748;2023-07-29T14:10:53;1.90;;;1.80;;
1957;SDS011;979;51.076;13.748;2023-07-29T14:13:21;1.97;;;1.60;;
1957;SDS011;979;51.076;13.748;2023-07-29T14:15:49;1.27;;;1.17;;
1957;SDS011;979;51.076;13.748;2023-07-29T14:18:19;3.37;;;1.70;;
1957;SDS011;979;51.076;13.748;2023-07-29T14:20:47;1.43;;;1.33;;
1957;SDS011;979;51.076;13.748;2023-07-29T14:23:15;1.40;;;1.30;;
1957;SDS011;979;51.076;13.748;2023-07-29T14:25:44;1.50;;;1.40;;
1957;SDS011;979;51.076;13.748;2023-07-29T14:28:14;1.10;;;1.10;;
1957;SDS011;979;51.076;13.748;2023-07-29T14:30:42;1.50;;;1.40;;
1957;SDS011;979;51.076;13.748;2023-07-29T14:33:11;1.60;;;1.40;;
1957;SDS011;979;51.076;13.748;2023-07-29T14:35:41;1.40;;;1.30;;
1957;SDS011;979;51.076;13.748;2023-07-29T14:38:09;1.20;;;1.20;;
1957;SDS011;979;51.076;13.748;2023-07-29T14:40:37;2.53;;;2.30;;
1957;SDS011;979;51.076;13.748;2023-07-29T14:43:05;1.83;;;1.73;;
1957;SDS011;979;51.076;13.748;2023-07-29T14:45:34;1.60;;;1.50;;
1957;SDS011;979;51.076;13.748;2023-07-29T14:48:02;1.63;;;1.40;;
1957;SDS011;979;51.076;13.748;2023-07-29T14:50:34;1.57;;;1.47;;
1957;SDS011;979;51.076;13.748;2023-07-29T14:53:06;1.47;;;1.37;;
1957;SDS011;979;51.076;13.748;2023-07-29T14:55:34;1.50;;;1.40;;
1957;SDS011;979;51.076;13.748;2023-07-29T14:58:02;1.27;;;1.17;;
1957;SDS011;979;51.076;13.748;2023-07-29T15:00:31;1.30;;;1.23;;
1957;SDS011;979;51.076;13.748;2023-07-29T15:02:59;1.80;;;1.70;;
1957;SDS011;979;51.076;13.748;2023-07-29T15:05:28;1.73;;;1.63;;
1957;SDS011;979;51.076;13.748;2023-07-29T15:07:56;1.30;;;1.20;;
1957;SDS011;979;51.076;13.748;2023-07-29T15:10:25;1.47;;;1.20;;
1957;SDS011;979;51.076;13.748;2023-07-29T15:12:53;1.63;;;1.53;;
1957;SDS011;979;51.076;13.748;2023-07-29T15:15:22;1.23;;;1.17;;
1957;SDS011;979;51.076;13.748;2023-07-29T15:17:50;1.80;;;1.70;;